Startpagina
METAR-TAF:

METAR-TAF

Vliegvelden :

Pohnpei, Micronesië

breedte: 06-59N, lengte: 158-12E, hoogte: 2 m

Actueel weer

Dit bericht is 35 minuten geleden gemaakt, om 01:50 UTC
Wind 10 kt uit het noordoosten
Temperatuur 31°C
Vochtigheid 71%
Druk 1006 hPa
Zicht: 24.1 km
Gebroken wolken op 1800 ft, Stapelwolken.
Geheel bewolkt op 30000 ft

METAR: PTPN 180150Z 05010KT 15SM BKN018TCU OVC300 31/25 A2970 RMK TCU ALQDS

Tijdstip: 13:25 (02:25 UTC)

Verwachting

Dit bericht is 2 uur en het 18 minuten geleden gemaakt, om 00:07 UTC
Verwachting geldig van 18 om 00 UTC tot 18 om 24 UTC
Wind 11 kt uit het noordoosten
Zicht: 10 km
Verspreide wolken op 1800 ft
Gebroken wolken op 13000 ft
buien in de omgeving

TAF: PTPN 180007Z 1800/1824 05011KT P6SM VCSH SCT018 BKN130

Waarnemingen en weersverwachtingen van meer dan 4000 vliegvelden (METAR en TAF).

De beschikbare stations zijn de gele en rode punten op de kaart.

Ga met uw muis naar het station om de naam te zien.

Klik dan om waarnemingen en weersverwachtingen te zien.

kaart wijzigen: klik op de groene knoppen met een zwart kruis om in te zoomen, op de groene knop met een streepje om uit te zoomen of op de groene pijlen voor aangrenzende kaarten.


METAR-TAF: